Pagrindinis puslapis
METAR-TAF:

METAR-TAF

Oro uostai :

Amsterdamo Schipcholo oro uostas

Amsterdamas, Nyderlandai

platuma: 52-18N, ilguma: 004-46E, Aukštis: -4 m

Dabartinis oras

Ataskaita buvo paskelbta 15 minutes, ne 23:25 UTC
Vėjas 4 kt iš Vakarų/Šiaurės Vakarų
Temperatūra 12°C
Drėgmė 88%
Slėgis 1012 hPa
Matomumas 10 km arba daugiau
Mažai debesys ne aukštis 2300 ft

METAR: EHAM 012325Z 29004KT 9999 FEW023 12/10 Q1012 NOSIG

Laikas: 01:40 (23:40 UTC)

Prognozė

Ataskaita buvo paskelbta 51 minutes, ne 22:49 UTC
Prognozė galioja nuo 02 metu 00 UTC su 03 metu 06 UTC
Vėjas 6 kt iš Vakarų/Šiaurės Vakarų
Matomumas 10 km arba daugiau
Mažai debesys ne aukštis 2500 ft
Tapsmas
nuo 02 metu 17 UTC su 02 metu 20 UTC
Vėjas 3 kt nuo kintamojo kryptimis

TAF: EHAM 012249Z 0200/0306 29006KT 9999 FEW025 BECMG 0217/0220 VRB03KT

Orai ataskaitas ir orų prognozės (METAR, TAF).

turimą stotys yra geltonos ir raudonos taškus žemėlapyje.

Perkelti pele per norėdami pamatyti stoties vardą.

Tada spustelėkite, norėdami matyti oro stebėjimo ir prognozės.

Norėdami pakeisti žemėlapį: spustelėkite ant žalios mygtukų su juodo kryžiaus žemyn,; žalią mygtuką su brūkšneliu, jei norite nutolinti; arba žalių rodyklių gretimoms žemėlapius.


METAR-TAF: